KCHO/CHO METAR and TAF weather

Enter ICAO airport designator
Station Type Date Time Source
KCHO METAR 2022/12/04 10:53 UTC NOAA

KCHO 041053Z 00000KT 10SM CLR 04/M08 A3024 RMK AO2 SLP239 T00441083 $


Station Type Date Time Source
KCHO Decoded METAR 2022/12/04 10:53 UTC NOAA

CHARLOTTESVILLE-ALBEMARLE, VA, United States (KCHO) 38-08N 078-27W 192M
Dec 04, 2022 - 05:53 AM EST / 2022.12.04 1053 UTC
Wind: Calm:0
Visibility: 10 mile(s):0
Sky conditions: clear
Temperature: 39.9 F (4.4 C)
Dew Point: 17.1 F (-8.3 C)
Relative Humidity: 39%
Pressure (altimeter): 30.24 in. Hg (1024 hPa)
ob: KCHO 041053Z 00000KT 10SM CLR 04/M08 A3024 RMK AO2 SLP239 T00441083
cycle: 11

Station Type Date Time Source
KCHO TAF 2022/12/04 12:36 UTC NOAA

TAF KCHO 041133Z 0412/0512 00000KT P6SM SKC
FM041400 34003KT P6SM FEW250
FM042000 18005KT P6SM SKC
FM050400 19003KT P6SM SKC

Example: see airport list